createdAt,value
2017-06-29T00:00:47.647Z,4.03
2017-06-29T00:03:15.195Z,3.10
2017-06-29T00:05:42.788Z,4.37
2017-06-29T00:08:10.350Z,4.13
2017-06-29T00:10:37.898Z,4.00
2017-06-29T00:13:05.476Z,3.33
2017-06-29T00:15:33.019Z,3.67
2017-06-29T00:18:00.602Z,4.13
2017-06-29T00:20:28.150Z,2.90
2017-06-29T00:22:55.735Z,3.00
2017-06-29T00:25:23.290Z,3.10
2017-06-29T00:27:50.868Z,3.00
2017-06-29T00:30:18.431Z,3.10
2017-06-29T00:32:46.024Z,2.77
2017-06-29T00:35:13.587Z,3.33
2017-06-29T00:37:43.670Z,3.47
2017-06-29T00:40:13.718Z,3.77
2017-06-29T00:45:49.894Z,3.53
2017-06-29T00:51:12.565Z,3.10
2017-06-29T00:53:40.189Z,3.40
2017-06-29T00:56:07.798Z,3.27
2017-06-29T00:58:36.292Z,2.90
2017-06-29T01:01:04.252Z,3.57
2017-06-29T01:03:32.632Z,3.40
2017-06-29T01:06:00.245Z,3.43
2017-06-29T01:11:20.881Z,3.30
2017-06-29T01:13:48.444Z,3.50
2017-06-29T01:16:16.007Z,3.20
2017-06-29T01:18:43.599Z,3.30
2017-06-29T01:21:11.149Z,3.60
2017-06-29T01:23:38.725Z,3.20
2017-06-29T01:26:06.272Z,3.30
2017-06-29T01:28:33.880Z,3.03
2017-06-29T01:31:01.437Z,3.53
2017-06-29T01:33:28.985Z,3.73
2017-06-29T01:35:56.568Z,3.40
2017-06-29T01:38:24.117Z,3.77
2017-06-29T01:40:51.723Z,3.47
2017-06-29T01:43:19.277Z,3.57
2017-06-29T01:45:46.863Z,3.43
2017-06-29T01:48:14.427Z,3.87
2017-06-29T01:59:51.315Z,3.50
2017-06-29T02:05:38.679Z,4.10
2017-06-29T02:08:06.271Z,3.50
2017-06-29T02:10:33.879Z,3.70
2017-06-29T02:13:01.441Z,3.60
2017-06-29T02:15:28.989Z,3.90
2017-06-29T02:17:56.567Z,3.60
2017-06-29T02:20:24.116Z,3.63
2017-06-29T02:22:51.693Z,3.17
2017-06-29T02:25:19.241Z,3.63
2017-06-29T02:27:46.835Z,3.50
2017-06-29T02:30:16.506Z,3.10
2017-06-29T02:32:50.310Z,3.17
2017-06-29T02:35:17.862Z,3.47
2017-06-29T02:37:45.410Z,3.37
2017-06-29T02:40:12.987Z,3.90
2017-06-29T02:42:40.535Z,3.70
2017-06-29T02:45:08.117Z,3.97
2017-06-29T02:47:35.661Z,3.60
2017-06-29T02:50:03.210Z,3.07
2017-06-29T02:52:41.614Z,3.40
2017-06-29T02:55:10.053Z,3.70
2017-06-29T02:57:44.920Z,3.50
2017-06-29T03:00:12.468Z,3.70
2017-06-29T03:02:40.046Z,3.00
2017-06-29T03:05:07.625Z,3.40
2017-06-29T03:07:35.758Z,3.40
2017-06-29T03:10:03.351Z,3.60
2017-06-29T03:20:21.814Z,3.83
2017-06-29T03:22:52.040Z,3.90
2017-06-29T03:25:28.731Z,3.57
2017-06-29T03:27:57.726Z,3.83
2017-06-29T03:30:38.808Z,3.93
2017-06-29T03:33:07.703Z,3.60
2017-06-29T03:35:35.488Z,3.17
2017-06-29T03:38:03.084Z,3.20
2017-06-29T03:40:30.632Z,3.80
2017-06-29T03:42:58.180Z,3.77
2017-06-29T03:45:25.771Z,3.00
2017-06-29T03:47:53.320Z,3.87
2017-06-29T03:50:20.897Z,3.90
2017-06-29T03:52:48.445Z,3.70
2017-06-29T03:55:16.023Z,3.80
2017-06-29T03:57:43.574Z,3.10
2017-06-29T04:00:11.149Z,2.90
2017-06-29T04:02:38.739Z,3.40
2017-06-29T04:05:06.309Z,3.30
2017-06-29T04:07:33.882Z,3.70
2017-06-29T04:10:01.431Z,3.00
2017-06-29T04:12:29.008Z,3.20
2017-06-29T04:14:56.591Z,3.13
2017-06-29T04:17:24.149Z,2.80
2017-06-29T04:19:51.726Z,3.27
2017-06-29T04:22:19.273Z,2.97
2017-06-29T04:24:46.868Z,3.00
2017-06-29T04:27:14.430Z,3.20
2017-06-29T04:29:41.978Z,3.00
2017-06-29T04:32:09.572Z,3.33
2017-06-29T04:34:37.117Z,3.00
2017-06-29T04:37:04.665Z,2.80
2017-06-29T04:39:32.273Z,3.57
2017-06-29T04:42:21.519Z,2.80
2017-06-29T04:59:57.474Z,3.40
2017-06-29T05:05:39.297Z,3.40
2017-06-29T05:28:18.895Z,3.70
2017-06-29T05:36:49.216Z,3.60
2017-06-29T05:39:20.080Z,3.47
2017-06-29T05:42:29.198Z,2.83
2017-06-29T05:45:01.354Z,3.23
2017-06-29T05:50:33.295Z,3.20
2017-06-29T05:53:00.882Z,3.30
2017-06-29T05:55:28.557Z,3.33
2017-06-29T06:24:17.070Z,2.50
2017-06-29T06:26:44.686Z,2.50
2017-06-29T06:32:06.596Z,2.50
2017-06-29T06:34:34.130Z,2.07
2017-06-29T06:37:01.714Z,2.53
2017-06-29T06:39:29.246Z,2.80
2017-06-29T06:41:56.776Z,2.67
2017-06-29T06:44:24.365Z,2.63
2017-06-29T06:46:51.932Z,2.80
2017-06-29T06:49:19.461Z,2.50
2017-06-29T06:51:47.027Z,2.97
2017-06-29T06:54:14.566Z,2.63
2017-06-29T06:56:42.143Z,3.10
2017-06-29T06:59:09.670Z,2.80
2017-06-29T07:01:37.256Z,2.77
2017-06-29T07:04:04.786Z,3.07
2017-06-29T07:06:32.326Z,2.30
2017-06-29T07:08:59.906Z,2.43
2017-06-29T07:11:27.446Z,2.40
2017-06-29T07:13:55.031Z,2.10
2017-06-29T07:16:22.574Z,2.73
2017-06-29T07:18:50.121Z,2.63
2017-06-29T07:21:17.716Z,2.77
2017-06-29T07:23:45.250Z,2.20
2017-06-29T07:26:12.786Z,2.10
2017-06-29T07:28:46.733Z,2.30
2017-06-29T07:31:14.358Z,2.30
2017-06-29T07:36:15.858Z,2.20
2017-06-29T07:38:43.507Z,2.70
2017-06-29T07:41:11.095Z,2.50
2017-06-29T07:43:38.651Z,2.93
2017-06-29T07:46:06.261Z,3.27
2017-06-29T07:48:33.797Z,2.73
2017-06-29T07:51:01.333Z,2.50
2017-06-29T07:53:28.926Z,2.57
2017-06-29T07:55:56.472Z,2.53
2017-06-29T07:58:24.010Z,2.50
2017-06-29T08:00:51.583Z,2.03
2017-06-29T08:03:19.464Z,2.00
2017-06-29T08:05:48.234Z,2.10
2017-06-29T08:08:15.770Z,2.60
2017-06-29T08:10:43.346Z,1.73
2017-06-29T08:13:10.967Z,2.10
2017-06-29T08:15:38.549Z,1.90
2017-06-29T08:18:06.085Z,1.50
2017-06-29T08:20:33.627Z,2.23
2017-06-29T08:23:01.205Z,2.40
2017-06-29T08:25:30.524Z,2.63
2017-06-29T08:27:58.056Z,3.20
2017-06-29T08:30:25.619Z,2.33
2017-06-29T08:32:53.195Z,2.10
2017-06-29T08:35:20.742Z,1.60
2017-06-29T08:37:48.307Z,2.37
2017-06-29T08:40:15.888Z,2.40
2017-06-29T08:42:43.465Z,2.30
2017-06-29T08:45:11.037Z,2.13
2017-06-29T08:47:38.623Z,2.07
2017-06-29T08:50:06.162Z,2.60
2017-06-29T08:52:33.697Z,2.13
2017-06-29T08:55:01.286Z,2.40
2017-06-29T08:57:28.829Z,2.70
2017-06-29T08:59:56.375Z,2.67
2017-06-29T09:02:23.961Z,2.37
2017-06-29T09:04:51.497Z,2.43
2017-06-29T09:07:19.104Z,1.80
2017-06-29T09:09:46.650Z,1.53
2017-06-29T09:12:14.181Z,2.17
2017-06-29T09:14:41.761Z,2.00
2017-06-29T09:17:09.328Z,1.70
2017-06-29T09:19:36.982Z,1.70
2017-06-29T09:22:04.524Z,2.00
2017-06-29T09:24:32.058Z,2.17
2017-06-29T09:27:00.097Z,2.20
2017-06-29T09:29:27.630Z,2.43
2017-06-29T09:31:55.185Z,2.37
2017-06-29T09:34:22.761Z,2.10
2017-06-29T09:36:50.383Z,2.40
2017-06-29T09:39:17.926Z,2.13
2017-06-29T09:41:45.461Z,2.03
2017-06-29T09:44:13.045Z,2.43
2017-06-29T09:46:40.585Z,2.00
2017-06-29T09:49:08.165Z,1.80
2017-06-29T09:51:35.707Z,2.20
2017-06-29T09:54:03.249Z,2.10
2017-06-29T09:56:30.821Z,2.20
2017-06-29T09:58:59.598Z,2.00
2017-06-29T10:01:27.221Z,2.60
2017-06-29T10:03:54.874Z,2.20
2017-06-29T10:06:22.447Z,2.40
2017-06-29T10:08:50.082Z,2.10
2017-06-29T10:11:17.735Z,2.53
2017-06-29T10:13:45.373Z,2.00
2017-06-29T10:16:13.035Z,2.00
2017-06-29T10:18:40.585Z,2.23
2017-06-29T10:21:08.385Z,2.67
2017-06-29T10:23:35.967Z,2.53
2017-06-29T10:26:03.607Z,2.03
2017-06-29T10:28:31.252Z,2.37
2017-06-29T10:30:58.815Z,2.60
2017-06-29T10:33:26.398Z,2.87
2017-06-29T10:35:54.174Z,2.80
2017-06-29T10:38:21.765Z,2.70
2017-06-29T10:40:49.332Z,3.00
2017-06-29T10:43:16.937Z,2.20
2017-06-29T10:45:44.562Z,2.40
2017-06-29T10:48:12.186Z,2.43
2017-06-29T10:50:39.942Z,2.40
2017-06-29T10:55:41.516Z,2.43
2017-06-29T10:58:11.372Z,2.40
2017-06-29T11:00:38.984Z,2.30
2017-06-29T11:03:06.595Z,2.50
2017-06-29T11:05:34.180Z,2.43
2017-06-29T11:08:01.762Z,2.20
2017-06-29T11:13:03.197Z,2.60
2017-06-29T11:15:30.741Z,2.47
2017-06-29T11:17:58.378Z,2.30
2017-06-29T11:20:26.013Z,2.47
2017-06-29T11:22:53.573Z,3.10
2017-06-29T11:25:21.111Z,2.33
2017-06-29T11:27:48.685Z,1.93
2017-06-29T11:30:16.224Z,2.47
2017-06-29T11:32:43.762Z,2.37
2017-06-29T11:35:11.333Z,2.70
2017-06-29T11:37:38.910Z,2.20
2017-06-29T11:40:06.466Z,1.77
2017-06-29T11:42:34.018Z,1.90
2017-06-29T11:45:02.252Z,2.30
2017-06-29T11:47:29.804Z,2.10
2017-06-29T11:49:57.345Z,1.90
2017-06-29T11:52:24.915Z,2.17
2017-06-29T11:54:52.453Z,2.40
2017-06-29T11:57:20.021Z,1.80
2017-06-29T11:59:47.561Z,1.67
2017-06-29T12:02:15.244Z,2.20
2017-06-29T12:04:42.773Z,1.50
2017-06-29T12:07:10.306Z,1.63
2017-06-29T12:09:37.872Z,1.90
2017-06-29T12:12:05.418Z,1.93
2017-06-29T12:14:33.004Z,1.77
2017-06-29T12:17:00.536Z,1.33
2017-06-29T12:19:28.135Z,1.40
2017-06-29T12:21:55.678Z,2.13
2017-06-29T12:24:23.220Z,1.60
2017-06-29T12:26:50.807Z,1.50
2017-06-29T12:29:18.346Z,1.80
2017-06-29T12:31:45.881Z,1.73
2017-06-29T12:34:13.449Z,1.50
2017-06-29T12:36:41.010Z,1.30
2017-06-29T12:39:08.539Z,1.50
2017-06-29T12:41:36.110Z,2.17
2017-06-29T12:44:03.646Z,1.27
2017-06-29T12:46:31.536Z,1.83
2017-06-29T12:48:59.110Z,1.73
2017-06-29T12:51:26.642Z,1.90
2017-06-29T12:53:54.226Z,1.70
2017-06-29T12:56:21.752Z,1.90
2017-06-29T12:58:49.287Z,2.00
2017-06-29T13:01:16.854Z,1.50
2017-06-29T13:03:44.480Z,1.53
2017-06-29T13:06:12.027Z,1.40
2017-06-29T13:08:39.573Z,1.80
2017-06-29T13:11:07.140Z,1.50
2017-06-29T13:13:35.589Z,1.90
2017-06-29T13:16:03.162Z,1.70
2017-06-29T13:18:30.703Z,1.30
2017-06-29T13:20:58.334Z,1.47
2017-06-29T13:23:25.877Z,1.07
2017-06-29T13:25:53.421Z,1.03
2017-06-29T13:28:20.993Z,1.53
2017-06-29T13:30:48.533Z,1.37
2017-06-29T13:33:16.112Z,1.33
2017-06-29T13:35:43.653Z,1.50
2017-06-29T13:38:11.199Z,1.20
2017-06-29T13:40:38.771Z,1.27
2017-06-29T13:43:06.309Z,1.50
2017-06-29T13:45:33.879Z,1.90
2017-06-29T13:48:01.407Z,1.50
2017-06-29T13:50:28.979Z,1.50
2017-06-29T13:52:56.514Z,1.33
2017-06-29T13:55:24.083Z,1.27
2017-06-29T13:57:53.033Z,0.90
2017-06-29T14:00:20.610Z,1.50
2017-06-29T14:02:48.151Z,1.27
2017-06-29T14:05:15.689Z,1.33
2017-06-29T14:07:43.266Z,1.10
2017-06-29T14:10:10.809Z,1.17
2017-06-29T14:12:38.351Z,1.10
2017-06-29T14:15:05.921Z,1.80
2017-06-29T14:17:33.510Z,1.40
2017-06-29T14:20:01.048Z,1.93
2017-06-29T14:22:28.593Z,1.50
2017-06-29T14:24:56.164Z,1.67
2017-06-29T14:27:23.698Z,1.50
2017-06-29T14:29:51.261Z,1.77
2017-06-29T14:32:18.826Z,1.07
2017-06-29T14:34:46.355Z,1.20
2017-06-29T14:37:13.932Z,1.40
2017-06-29T14:39:41.461Z,1.43
2017-06-29T14:42:09.346Z,1.33
2017-06-29T14:44:37.910Z,1.50
2017-06-29T14:47:06.336Z,1.27
2017-06-29T14:49:41.666Z,1.17
2017-06-29T14:52:09.800Z,1.17
2017-06-29T14:54:48.190Z,1.60
2017-06-29T14:57:27.474Z,1.43
2017-06-29T15:00:03.688Z,1.60
2017-06-29T15:02:32.373Z,1.67
2017-06-29T15:05:07.239Z,1.40
2017-06-29T15:07:35.241Z,1.30
2017-06-29T15:10:02.869Z,1.57
2017-06-29T15:12:30.401Z,1.20
2017-06-29T15:14:57.932Z,1.00
2017-06-29T15:17:26.118Z,1.30
2017-06-29T15:19:57.508Z,1.20
2017-06-29T15:22:25.556Z,1.20
2017-06-29T15:24:54.460Z,1.20
2017-06-29T15:27:27.342Z,1.13
2017-06-29T15:29:55.754Z,1.17
2017-06-29T15:32:25.370Z,1.40
2017-06-29T15:35:04.385Z,1.60
2017-06-29T15:37:33.414Z,1.00
2017-06-29T15:40:02.013Z,1.13
2017-06-29T15:42:31.537Z,1.47
2017-06-29T15:45:03.021Z,1.00
2017-06-29T15:47:32.162Z,1.43
2017-06-29T15:50:05.626Z,1.20
2017-06-29T15:52:36.464Z,1.40
2017-06-29T15:55:06.789Z,1.30
2017-06-29T15:57:36.299Z,1.17
2017-06-29T16:00:04.372Z,1.13
2017-06-29T16:05:09.377Z,1.30
2017-06-29T16:07:39.942Z,1.70
2017-06-29T16:10:08.610Z,1.17
2017-06-29T16:12:36.992Z,1.20
2017-06-29T16:15:08.171Z,1.20
2017-06-29T16:17:36.924Z,1.10
2017-06-29T16:22:39.945Z,1.53
2017-06-29T16:25:08.130Z,1.47
2017-06-29T16:27:36.431Z,1.77
2017-06-29T16:30:06.704Z,1.90
2017-06-29T16:32:35.302Z,1.23
2017-06-29T16:35:03.835Z,1.10
2017-06-29T16:37:31.647Z,1.17
2017-06-29T16:40:00.987Z,1.30
2017-06-29T16:42:32.837Z,1.30
2017-06-29T16:45:00.598Z,1.30
2017-06-29T16:47:28.373Z,1.27
2017-06-29T16:49:56.063Z,1.10
2017-06-29T16:52:23.688Z,1.20
2017-06-29T16:54:51.423Z,1.07
2017-06-29T16:57:19.133Z,0.97
2017-06-29T16:59:46.843Z,1.17
2017-06-29T17:02:14.573Z,1.13
2017-06-29T17:04:42.141Z,0.93
2017-06-29T17:07:09.729Z,1.00
2017-06-29T17:09:37.470Z,1.30
2017-06-29T17:12:06.624Z,1.27
2017-06-29T17:14:34.391Z,1.00
2017-06-29T17:17:06.210Z,1.23
2017-06-29T17:19:33.932Z,1.40
2017-06-29T17:22:03.324Z,0.93
2017-06-29T17:24:35.846Z,1.50
2017-06-29T17:27:03.558Z,1.40
2017-06-29T17:29:31.333Z,1.60
2017-06-29T17:31:59.008Z,1.27
2017-06-29T17:34:26.659Z,1.30
2017-06-29T17:36:55.333Z,1.30
2017-06-29T17:39:23.783Z,1.30
2017-06-29T17:41:51.586Z,1.20
2017-06-29T17:44:19.661Z,1.10
2017-06-29T17:46:48.347Z,1.30
2017-06-29T17:51:50.256Z,1.00
2017-06-29T17:54:17.989Z,1.37
2017-06-29T17:56:47.910Z,2.07
2017-06-29T17:59:19.491Z,1.20
2017-06-29T18:01:52.262Z,1.40
2017-06-29T18:04:20.773Z,1.67
2017-06-29T18:06:48.618Z,1.63
2017-06-29T18:09:16.614Z,1.33
2017-06-29T18:11:44.514Z,1.50
2017-06-29T18:14:12.053Z,1.23
2017-06-29T18:16:39.634Z,1.40
2017-06-29T18:19:07.208Z,1.60
2017-06-29T18:21:37.238Z,1.70
2017-06-29T18:24:05.998Z,1.10
2017-06-29T18:26:34.917Z,1.20
2017-06-29T18:29:02.499Z,1.40
2017-06-29T18:31:31.939Z,1.67
2017-06-29T18:34:00.893Z,2.50
2017-06-29T18:36:31.525Z,1.43
2017-06-29T18:38:59.951Z,1.30
2017-06-29T18:41:27.525Z,1.60
2017-06-29T18:43:55.958Z,1.30
2017-06-29T18:46:23.589Z,1.00
2017-06-29T18:48:51.401Z,1.50
2017-06-29T18:51:18.969Z,1.13
2017-06-29T18:53:47.075Z,1.67
2017-06-29T18:56:19.170Z,1.20
2017-06-29T18:58:47.986Z,1.90
2017-06-29T19:01:15.610Z,1.47
2017-06-29T19:03:43.393Z,1.77
2017-06-29T19:06:11.217Z,1.60
2017-06-29T19:08:38.857Z,1.30
2017-06-29T19:11:06.451Z,1.80
2017-06-29T19:13:34.121Z,1.57
2017-06-29T19:16:02.414Z,1.23
2017-06-29T19:18:31.268Z,1.60
2017-06-29T19:20:58.844Z,1.40
2017-06-29T19:23:26.408Z,1.60
2017-06-29T19:25:53.974Z,1.60
2017-06-29T19:28:21.546Z,1.20
2017-06-29T19:30:49.139Z,1.40
2017-06-29T19:33:16.705Z,1.70
2017-06-29T19:35:45.040Z,1.77
2017-06-29T19:38:12.610Z,1.50
2017-06-29T19:40:40.176Z,2.03
2017-06-29T19:43:07.728Z,1.40
2017-06-29T19:45:35.324Z,1.83
2017-06-29T19:48:02.894Z,1.90
2017-06-29T19:50:31.253Z,1.50
2017-06-29T19:52:59.294Z,1.63
2017-06-29T19:55:26.843Z,1.43
2017-06-29T19:57:54.474Z,2.03
2017-06-29T20:00:22.042Z,1.40
2017-06-29T20:02:49.632Z,1.50
2017-06-29T20:05:17.201Z,1.87
2017-06-29T20:07:45.000Z,1.90
2017-06-29T20:10:12.867Z,1.90
2017-06-29T20:12:40.409Z,1.90
2017-06-29T20:15:07.981Z,4.10
2017-06-29T20:17:36.161Z,2.60
2017-06-29T20:20:04.686Z,2.00
2017-06-29T20:22:32.707Z,1.57
2017-06-29T20:25:00.583Z,1.63
2017-06-29T20:27:31.770Z,1.90
2017-06-29T20:29:59.336Z,1.33
2017-06-29T20:32:26.909Z,1.60
2017-06-29T20:34:54.448Z,1.80
2017-06-29T20:37:23.557Z,1.63
2017-06-29T20:39:53.001Z,1.40
2017-06-29T20:42:20.599Z,1.50
2017-06-29T20:44:48.221Z,1.70
2017-06-29T20:47:16.466Z,1.20
2017-06-29T20:49:44.025Z,1.60
2017-06-29T20:52:11.586Z,1.27
2017-06-29T20:54:39.128Z,1.97
2017-06-29T20:57:06.706Z,1.57
2017-06-29T20:59:34.269Z,2.17
2017-06-29T21:02:01.970Z,1.97
2017-06-29T21:04:29.614Z,1.90
2017-06-29T21:06:59.865Z,2.40
2017-06-29T21:09:28.812Z,1.80
2017-06-29T21:11:57.493Z,1.70
2017-06-29T21:14:25.222Z,1.77
2017-06-29T21:16:57.376Z,2.13
2017-06-29T21:19:24.948Z,2.20
2017-06-29T21:21:52.567Z,1.90
2017-06-29T21:24:20.457Z,1.97
2017-06-29T21:26:48.031Z,1.77
2017-06-29T21:29:16.405Z,2.50
2017-06-29T21:31:43.953Z,2.07
2017-06-29T21:34:11.757Z,2.13
2017-06-29T21:36:39.338Z,1.97
2017-06-29T21:39:06.892Z,1.87
2017-06-29T21:41:34.513Z,1.93
2017-06-29T21:44:02.065Z,2.00
2017-06-29T21:46:30.335Z,1.73
2017-06-29T21:48:57.907Z,1.87
2017-06-29T21:51:25.473Z,2.23
2017-06-29T21:53:53.287Z,1.80
2017-06-29T21:56:21.157Z,2.10
2017-06-29T21:58:48.698Z,1.70
2017-06-29T22:01:16.286Z,1.47
2017-06-29T22:03:43.814Z,3.30
2017-06-29T22:06:11.390Z,2.10
2017-06-29T22:08:38.921Z,2.00
2017-06-29T22:11:07.373Z,1.83
2017-06-29T22:13:34.935Z,1.97
2017-06-29T22:16:02.473Z,1.80
2017-06-29T22:18:30.318Z,1.67
2017-06-29T22:20:57.858Z,2.10
2017-06-29T22:23:25.398Z,2.13
2017-06-29T22:25:52.978Z,1.80
2017-06-29T22:28:20.515Z,1.60
2017-06-29T22:30:53.737Z,2.30
2017-06-29T22:33:21.269Z,2.80
2017-06-29T22:35:48.829Z,2.00
2017-06-29T22:38:16.371Z,2.17
2017-06-29T22:40:44.986Z,2.43
2017-06-29T22:43:12.520Z,1.90
2017-06-29T22:45:40.096Z,1.83
2017-06-29T22:48:07.625Z,1.70
2017-06-29T22:50:35.166Z,1.80
2017-06-29T22:53:02.726Z,1.83
2017-06-29T22:55:30.266Z,2.40
2017-06-29T22:57:57.830Z,2.00
2017-06-29T23:00:25.388Z,2.00
2017-06-29T23:02:52.948Z,1.50
2017-06-29T23:05:20.482Z,1.93
2017-06-29T23:07:48.042Z,1.60
2017-06-29T23:10:15.625Z,1.40
2017-06-29T23:12:43.201Z,1.40
2017-06-29T23:15:10.743Z,1.40
2017-06-29T23:17:38.289Z,1.40
2017-06-29T23:20:05.858Z,1.60
2017-06-29T23:22:33.398Z,1.43
2017-06-29T23:25:00.975Z,1.80
2017-06-29T23:27:28.643Z,1.30
2017-06-29T23:29:56.177Z,1.80
2017-06-29T23:32:23.711Z,1.50
2017-06-29T23:34:51.275Z,1.30
2017-06-29T23:37:18.812Z,1.53
2017-06-29T23:39:46.376Z,1.80
2017-06-29T23:42:13.906Z,1.30
2017-06-29T23:44:41.753Z,1.50
2017-06-29T23:47:09.294Z,1.43
2017-06-29T23:49:36.820Z,1.50
2017-06-29T23:52:04.393Z,1.53
2017-06-29T23:54:31.993Z,1.50
2017-06-29T23:56:59.531Z,1.40
2017-06-29T23:59:27.067Z,1.47
